sensor_id;sensor_type;location;lat;lon;timestamp;pressure;altitude;pressure_sealevel;temperature;humidity
47811;BME280;33575;52.600;7.318;2023-12-20T00:00:30;101094.16;;;5.98;98.97
47811;BME280;33575;52.600;7.318;2023-12-20T00:03:01;101094.03;;;5.96;99.31
47811;BME280;33575;52.600;7.318;2023-12-20T00:05:32;101092.46;;;5.92;98.86
47811;BME280;33575;52.600;7.318;2023-12-20T00:08:03;101089.67;;;5.90;99.16
47811;BME280;33575;52.600;7.318;2023-12-20T00:10:33;101092.36;;;5.83;99.86
47811;BME280;33575;52.600;7.318;2023-12-20T00:13:04;101095.16;;;5.87;99.06
47811;BME280;33575;52.600;7.318;2023-12-20T00:15:35;101089.91;;;5.83;99.39
47811;BME280;33575;52.600;7.318;2023-12-20T00:18:05;101089.19;;;5.82;99.34
47811;BME280;33575;52.600;7.318;2023-12-20T00:20:36;101091.93;;;5.80;99.34
47811;BME280;33575;52.600;7.318;2023-12-20T00:23:07;101088.22;;;5.80;99.57
47811;BME280;33575;52.600;7.318;2023-12-20T00:25:37;101086.91;;;5.73;100.00
47811;BME280;33575;52.600;7.318;2023-12-20T00:28:08;101086.80;;;5.72;99.69
47811;BME280;33575;52.600;7.318;2023-12-20T00:30:39;101085.25;;;5.71;99.65
47811;BME280;33575;52.600;7.318;2023-12-20T00:33:10;101078.86;;;5.63;100.00
47811;BME280;33575;52.600;7.318;2023-12-20T00:35:40;101078.23;;;5.69;99.68
47811;BME280;33575;52.600;7.318;2023-12-20T00:38:11;101077.04;;;5.65;99.55
47811;BME280;33575;52.600;7.318;2023-12-20T00:40:41;101075.35;;;5.61;100.00
47811;BME280;33575;52.600;7.318;2023-12-20T00:43:12;101070.49;;;5.64;100.00
47811;BME280;33575;52.600;7.318;2023-12-20T00:45:43;101065.61;;;5.59;100.00
47811;BME280;33575;52.600;7.318;2023-12-20T00:48:14;101067.70;;;5.61;99.50
47811;BME280;33575;52.600;7.318;2023-12-20T00:50:44;101064.57;;;5.58;98.97
47811;BME280;33575;52.600;7.318;2023-12-20T00:53:15;101060.90;;;5.60;99.88
47811;BME280;33575;52.600;7.318;2023-12-20T00:55:46;101062.10;;;5.61;99.02
47811;BME280;33575;52.600;7.318;2023-12-20T00:58:16;101058.75;;;5.58;99.55
47811;BME280;33575;52.600;7.318;2023-12-20T01:00:47;101054.74;;;5.50;100.00
47811;BME280;33575;52.600;7.318;2023-12-20T01:03:18;101051.69;;;5.51;99.77
47811;BME280;33575;52.600;7.318;2023-12-20T01:05:48;101042.68;;;5.47;99.83
47811;BME280;33575;52.600;7.318;2023-12-20T01:08:19;101036.54;;;5.48;99.66
47811;BME280;33575;52.600;7.318;2023-12-20T01:10:49;101033.44;;;5.42;98.89
47811;BME280;33575;52.600;7.318;2023-12-20T01:13:20;101030.81;;;5.49;98.86
47811;BME280;33575;52.600;7.318;2023-12-20T01:15:51;101036.95;;;5.46;98.34
47811;BME280;33575;52.600;7.318;2023-12-20T01:18:22;101051.10;;;5.45;99.00
47811;BME280;33575;52.600;7.318;2023-12-20T01:20:52;101052.21;;;5.48;98.72
47811;BME280;33575;52.600;7.318;2023-12-20T01:23:23;101057.64;;;5.45;98.99
47811;BME280;33575;52.600;7.318;2023-12-20T01:25:54;101060.59;;;5.44;98.64
47811;BME280;33575;52.600;7.318;2023-12-20T01:28:24;101065.04;;;5.46;97.78
47811;BME280;33575;52.600;7.318;2023-12-20T01:30:55;101064.59;;;5.40;99.07
47811;BME280;33575;52.600;7.318;2023-12-20T01:33:26;101062.19;;;5.43;98.21
47811;BME280;33575;52.600;7.318;2023-12-20T01:35:56;101052.65;;;5.43;98.01
47811;BME280;33575;52.600;7.318;2023-12-20T01:38:27;101049.05;;;5.43;98.29
47811;BME280;33575;52.600;7.318;2023-12-20T01:40:58;101048.31;;;5.37;98.73
47811;BME280;33575;52.600;7.318;2023-12-20T01:43:32;101048.40;;;5.38;97.56
47811;BME280;33575;52.600;7.318;2023-12-20T01:45:59;101041.56;;;5.33;97.76
47811;BME280;33575;52.600;7.318;2023-12-20T01:48:30;101038.49;;;5.31;97.85
47811;BME280;33575;52.600;7.318;2023-12-20T01:51:02;101035.28;;;5.24;98.56
47811;BME280;33575;52.600;7.318;2023-12-20T01:53:31;101032.17;;;5.22;98.38
47811;BME280;33575;52.600;7.318;2023-12-20T01:56:02;101033.98;;;5.22;98.56
47811;BME280;33575;52.600;7.318;2023-12-20T01:58:33;101042.96;;;5.07;99.64
47811;BME280;33575;52.600;7.318;2023-12-20T02:01:04;101043.87;;;5.13;99.15
47811;BME280;33575;52.600;7.318;2023-12-20T02:03:35;101040.54;;;5.05;99.82
47811;BME280;33575;52.600;7.318;2023-12-20T02:06:05;101038.62;;;5.08;99.43
47811;BME280;33575;52.600;7.318;2023-12-20T02:08:36;101035.49;;;5.06;100.00
47811;BME280;33575;52.600;7.318;2023-12-20T02:11:06;101029.68;;;5.12;98.70
47811;BME280;33575;52.600;7.318;2023-12-20T02:13:37;101020.90;;;5.16;98.61
47811;BME280;33575;52.600;7.318;2023-12-20T02:16:08;101027.27;;;5.09;100.00
47811;BME280;33575;52.600;7.318;2023-12-20T02:18:39;101021.78;;;5.25;100.00
47811;BME280;33575;52.600;7.318;2023-12-20T02:21:09;101014.87;;;5.27;99.71
47811;BME280;33575;52.600;7.318;2023-12-20T02:23:40;101010.64;;;5.22;98.96
47811;BME280;33575;52.600;7.318;2023-12-20T02:26:11;101013.20;;;5.15;98.27
47811;BME280;33575;52.600;7.318;2023-12-20T02:28:42;101017.40;;;5.08;98.64
47811;BME280;33575;52.600;7.318;2023-12-20T02:31:12;101020.37;;;4.94;100.00
47811;BME280;33575;52.600;7.318;2023-12-20T02:33:43;101013.60;;;4.90;99.74
47811;BME280;33575;52.600;7.318;2023-12-20T02:36:14;101014.36;;;4.84;99.36
47811;BME280;33575;52.600;7.318;2023-12-20T02:38:44;101006.64;;;4.80;99.97
47811;BME280;33575;52.600;7.318;2023-12-20T02:41:15;101007.26;;;4.82;100.00
47811;BME280;33575;52.600;7.318;2023-12-20T02:43:46;101002.67;;;4.81;100.00
47811;BME280;33575;52.600;7.318;2023-12-20T02:46:17;101000.56;;;4.82;100.00
47811;BME280;33575;52.600;7.318;2023-12-20T02:48:47;101001.08;;;4.66;100.00
47811;BME280;33575;52.600;7.318;2023-12-20T02:51:18;101002.16;;;4.87;100.00
47811;BME280;33575;52.600;7.318;2023-12-20T02:53:48;101002.62;;;4.94;100.00
47811;BME280;33575;52.600;7.318;2023-12-20T02:56:19;100997.35;;;4.97;100.00
47811;BME280;33575;52.600;7.318;2023-12-20T02:58:50;100993.49;;;4.94;100.00
47811;BME280;33575;52.600;7.318;2023-12-20T03:01:21;100997.48;;;4.77;100.00
47811;BME280;33575;52.600;7.318;2023-12-20T03:03:51;100987.31;;;4.93;100.00
47811;BME280;33575;52.600;7.318;2023-12-20T03:06:22;100986.45;;;4.85;100.00
47811;BME280;33575;52.600;7.318;2023-12-20T03:08:53;100981.52;;;4.99;100.00
47811;BME280;33575;52.600;7.318;2023-12-20T03:11:26;100989.42;;;4.98;100.00
47811;BME280;33575;52.600;7.318;2023-12-20T03:13:54;100989.34;;;5.01;100.00
47811;BME280;33575;52.600;7.318;2023-12-20T03:16:25;100982.88;;;5.05;100.00
47811;BME280;33575;52.600;7.318;2023-12-20T03:18:56;100976.84;;;5.05;100.00
47811;BME280;33575;52.600;7.318;2023-12-20T03:21:26;100977.44;;;5.04;100.00
47811;BME280;33575;52.600;7.318;2023-12-20T03:23:57;100980.98;;;5.08;100.00
47811;BME280;33575;52.600;7.318;2023-12-20T03:26:28;100986.35;;;5.11;100.00
47811;BME280;33575;52.600;7.318;2023-12-20T03:28:59;100984.80;;;5.12;100.00
47811;BME280;33575;52.600;7.318;2023-12-20T03:31:30;100982.05;;;5.13;100.00
47811;BME280;33575;52.600;7.318;2023-12-20T03:34:01;100975.08;;;5.14;100.00
47811;BME280;33575;52.600;7.318;2023-12-20T03:36:31;100979.67;;;5.17;100.00
47811;BME280;33575;52.600;7.318;2023-12-20T03:39:02;100967.07;;;5.12;100.00
47811;BME280;33575;52.600;7.318;2023-12-20T03:41:33;100974.44;;;5.12;100.00
47811;BME280;33575;52.600;7.318;2023-12-20T03:44:04;100973.60;;;5.16;100.00
47811;BME280;33575;52.600;7.318;2023-12-20T03:46:34;100970.69;;;5.15;100.00
47811;BME280;33575;52.600;7.318;2023-12-20T03:49:06;100970.23;;;5.20;100.00
47811;BME280;33575;52.600;7.318;2023-12-20T03:51:35;100971.74;;;5.21;100.00
47811;BME280;33575;52.600;7.318;2023-12-20T03:54:06;100969.94;;;5.14;100.00
47811;BME280;33575;52.600;7.318;2023-12-20T03:56:37;100966.60;;;5.19;100.00
47811;BME280;33575;52.600;7.318;2023-12-20T03:59:07;100963.05;;;5.13;100.00
47811;BME280;33575;52.600;7.318;2023-12-20T04:01:38;100960.78;;;5.20;100.00
47811;BME280;33575;52.600;7.318;2023-12-20T04:04:09;100962.25;;;5.21;100.00
47811;BME280;33575;52.600;7.318;2023-12-20T04:06:40;100968.98;;;5.20;100.00
47811;BME280;33575;52.600;7.318;2023-12-20T04:09:10;100968.16;;;5.15;100.00
47811;BME280;33575;52.600;7.318;2023-12-20T04:11:41;100970.21;;;5.17;100.00
47811;BME280;33575;52.600;7.318;2023-12-20T04:14:12;100969.62;;;5.13;100.00
47811;BME280;33575;52.600;7.318;2023-12-20T04:16:47;100976.95;;;5.12;100.00
47811;BME280;33575;52.600;7.318;2023-12-20T04:19:13;100954.59;;;5.09;100.00
47811;BME280;33575;52.600;7.318;2023-12-20T04:21:44;100956.60;;;5.13;100.00
47811;BME280;33575;52.600;7.318;2023-12-20T04:24:15;100955.60;;;4.94;100.00
47811;BME280;33575;52.600;7.318;2023-12-20T04:26:46;100953.99;;;5.06;100.00
47811;BME280;33575;52.600;7.318;2023-12-20T04:29:16;100950.76;;;5.19;100.00
47811;BME280;33575;52.600;7.318;2023-12-20T04:31:47;100948.26;;;5.13;100.00
47811;BME280;33575;52.600;7.318;2023-12-20T04:34:18;100948.51;;;5.21;100.00
47811;BME280;33575;52.600;7.318;2023-12-20T04:36:49;100940.48;;;5.24;100.00
47811;BME280;33575;52.600;7.318;2023-12-20T04:39:19;100942.89;;;5.12;100.00
47811;BME280;33575;52.600;7.318;2023-12-20T04:41:50;100942.54;;;5.05;100.00
47811;BME280;33575;52.600;7.318;2023-12-20T04:44:21;100943.12;;;5.06;100.00
47811;BME280;33575;52.600;7.318;2023-12-20T04:46:52;100934.77;;;5.16;100.00
47811;BME280;33575;52.600;7.318;2023-12-20T04:49:23;100935.80;;;5.21;100.00
47811;BME280;33575;52.600;7.318;2023-12-20T04:51:53;100939.05;;;5.27;100.00
47811;BME280;33575;52.600;7.318;2023-12-20T04:54:24;100939.67;;;5.25;100.00
47811;BME280;33575;52.600;7.318;2023-12-20T04:56:54;100935.64;;;5.18;100.00
47811;BME280;33575;52.600;7.318;2023-12-20T04:59:25;100938.65;;;5.23;100.00
47811;BME280;33575;52.600;7.318;2023-12-20T05:01:56;100934.29;;;5.23;100.00
47811;BME280;33575;52.600;7.318;2023-12-20T05:04:26;100937.65;;;5.25;100.00
47811;BME280;33575;52.600;7.318;2023-12-20T05:06:57;100931.18;;;5.12;100.00
47811;BME280;33575;52.600;7.318;2023-12-20T05:09:28;100929.12;;;5.26;100.00
47811;BME280;33575;52.600;7.318;2023-12-20T05:11:58;100920.77;;;5.29;100.00
47811;BME280;33575;52.600;7.318;2023-12-20T05:14:29;100915.89;;;5.30;100.00
47811;BME280;33575;52.600;7.318;2023-12-20T05:17:00;100930.10;;;5.32;100.00
47811;BME280;33575;52.600;7.318;2023-12-20T05:19:31;100930.34;;;5.30;100.00
47811;BME280;33575;52.600;7.318;2023-12-20T05:22:01;100926.25;;;5.24;100.00
47811;BME280;33575;52.600;7.318;2023-12-20T05:24:32;100934.20;;;5.37;100.00
47811;BME280;33575;52.600;7.318;2023-12-20T05:27:03;100937.50;;;5.34;100.00
47811;BME280;33575;52.600;7.318;2023-12-20T05:29:33;100920.04;;;5.35;100.00
47811;BME280;33575;52.600;7.318;2023-12-20T05:32:04;100931.73;;;5.34;100.00
47811;BME280;33575;52.600;7.318;2023-12-20T05:34:35;100919.69;;;5.30;100.00
47811;BME280;33575;52.600;7.318;2023-12-20T05:37:05;100919.30;;;5.22;100.00
47811;BME280;33575;52.600;7.318;2023-12-20T05:39:36;100927.16;;;5.27;100.00
47811;BME280;33575;52.600;7.318;2023-12-20T05:42:07;100923.40;;;5.33;100.00
47811;BME280;33575;52.600;7.318;2023-12-20T05:44:37;100923.64;;;5.33;100.00
47811;BME280;33575;52.600;7.318;2023-12-20T05:47:08;100935.06;;;5.31;100.00
47811;BME280;33575;52.600;7.318;2023-12-20T05:49:39;100937.88;;;5.26;100.00
47811;BME280;33575;52.600;7.318;2023-12-20T05:52:10;100938.31;;;5.33;100.00
47811;BME280;33575;52.600;7.318;2023-12-20T05:54:40;100932.61;;;5.17;100.00
47811;BME280;33575;52.600;7.318;2023-12-20T05:57:11;100930.71;;;5.34;100.00
47811;BME280;33575;52.600;7.318;2023-12-20T05:59:42;100930.51;;;5.27;100.00
47811;BME280;33575;52.600;7.318;2023-12-20T06:02:12;100928.46;;;5.39;100.00
47811;BME280;33575;52.600;7.318;2023-12-20T06:04:43;100923.97;;;5.44;100.00
47811;BME280;33575;52.600;7.318;2023-12-20T06:07:14;100932.46;;;5.43;100.00
47811;BME280;33575;52.600;7.318;2023-12-20T06:09:43;100935.65;;;5.44;100.00
47811;BME280;33575;52.600;7.318;2023-12-20T06:12:14;100933.64;;;5.33;100.00
47811;BME280;33575;52.600;7.318;2023-12-20T06:14:45;100911.73;;;5.41;100.00
47811;BME280;33575;52.600;7.318;2023-12-20T06:17:15;100918.59;;;5.44;100.00
47811;BME280;33575;52.600;7.318;2023-12-20T06:19:46;100918.40;;;5.47;100.00
47811;BME280;33575;52.600;7.318;2023-12-20T06:22:17;100919.22;;;5.56;100.00
47811;BME280;33575;52.600;7.318;2023-12-20T06:24:47;100921.60;;;5.62;100.00
47811;BME280;33575;52.600;7.318;2023-12-20T06:27:18;100915.22;;;5.62;100.00
47811;BME280;33575;52.600;7.318;2023-12-20T06:29:49;100912.54;;;5.62;100.00
47811;BME280;33575;52.600;7.318;2023-12-20T06:32:20;100904.44;;;5.56;100.00
47811;BME280;33575;52.600;7.318;2023-12-20T06:34:50;100900.54;;;5.60;100.00
47811;BME280;33575;52.600;7.318;2023-12-20T06:37:21;100890.18;;;5.59;100.00
47811;BME280;33575;52.600;7.318;2023-12-20T06:39:51;100897.01;;;5.53;100.00
47811;BME280;33575;52.600;7.318;2023-12-20T06:42:22;100905.53;;;5.53;100.00
47811;BME280;33575;52.600;7.318;2023-12-20T06:44:52;100897.75;;;5.54;100.00
47811;BME280;33575;52.600;7.318;2023-12-20T06:47:23;100903.49;;;5.65;100.00
47811;BME280;33575;52.600;7.318;2023-12-20T06:49:54;100895.43;;;5.63;100.00
47811;BME280;33575;52.600;7.318;2023-12-20T06:52:25;100896.98;;;5.51;100.00
47811;BME280;33575;52.600;7.318;2023-12-20T06:54:55;100899.40;;;5.54;100.00
47811;BME280;33575;52.600;7.318;2023-12-20T06:57:26;100896.92;;;5.70;100.00
47811;BME280;33575;52.600;7.318;2023-12-20T06:59:56;100898.66;;;5.60;100.00
47811;BME280;33575;52.600;7.318;2023-12-20T07:02:27;100903.56;;;5.71;100.00
47811;BME280;33575;52.600;7.318;2023-12-20T07:04:58;100904.88;;;5.54;100.00
47811;BME280;33575;52.600;7.318;2023-12-20T07:07:29;100896.16;;;5.47;100.00
47811;BME280;33575;52.600;7.318;2023-12-20T07:09:59;100887.88;;;5.53;100.00
47811;BME280;33575;52.600;7.318;2023-12-20T07:12:29;100886.28;;;5.58;100.00
47811;BME280;33575;52.600;7.318;2023-12-20T07:15:00;100880.27;;;5.57;100.00
47811;BME280;33575;52.600;7.318;2023-12-20T07:17:31;100870.19;;;5.56;100.00
47811;BME280;33575;52.600;7.318;2023-12-20T07:20:02;100872.59;;;5.65;100.00
47811;BME280;33575;52.600;7.318;2023-12-20T07:22:33;100870.90;;;5.54;100.00
47811;BME280;33575;52.600;7.318;2023-12-20T07:25:03;100867.75;;;5.58;100.00
47811;BME280;33575;52.600;7.318;2023-12-20T07:27:33;100865.53;;;5.63;100.00
47811;BME280;33575;52.600;7.318;2023-12-20T07:30:05;100863.07;;;5.57;100.00
47811;BME280;33575;52.600;7.318;2023-12-20T07:32:35;100862.04;;;5.66;100.00
47811;BME280;33575;52.600;7.318;2023-12-20T07:35:07;100856.10;;;5.64;100.00
47811;BME280;33575;52.600;7.318;2023-12-20T07:37:36;100854.36;;;5.73;100.00
47811;BME280;33575;52.600;7.318;2023-12-20T07:40:08;100861.19;;;5.67;100.00
47811;BME280;33575;52.600;7.318;2023-12-20T07:42:38;100865.02;;;5.65;100.00
47811;BME280;33575;52.600;7.318;2023-12-20T07:45:09;100870.32;;;5.71;100.00
47811;BME280;33575;52.600;7.318;2023-12-20T07:47:39;100864.15;;;5.65;100.00
47811;BME280;33575;52.600;7.318;2023-12-20T07:50:09;100867.40;;;5.53;100.00
47811;BME280;33575;52.600;7.318;2023-12-20T07:52:39;100861.39;;;5.65;100.00
47811;BME280;33575;52.600;7.318;2023-12-20T07:55:10;100858.49;;;5.71;100.00
47811;BME280;33575;52.600;7.318;2023-12-20T07:57:41;100859.97;;;5.71;100.00
47811;BME280;33575;52.600;7.318;2023-12-20T08:00:12;100859.53;;;5.71;100.00
47811;BME280;33575;52.600;7.318;2023-12-20T08:02:42;100861.48;;;5.71;100.00
47811;BME280;33575;52.600;7.318;2023-12-20T08:05:13;100866.15;;;5.68;100.00
47811;BME280;33575;52.600;7.318;2023-12-20T08:07:44;100868.26;;;5.56;100.00
47811;BME280;33575;52.600;7.318;2023-12-20T08:10:15;100867.45;;;5.67;100.00
47811;BME280;33575;52.600;7.318;2023-12-20T08:12:45;100865.70;;;5.58;100.00
47811;BME280;33575;52.600;7.318;2023-12-20T08:15:15;100862.50;;;5.68;100.00
47811;BME280;33575;52.600;7.318;2023-12-20T08:17:46;100849.59;;;5.59;100.00
47811;BME280;33575;52.600;7.318;2023-12-20T08:20:22;100844.76;;;5.67;100.00
47811;BME280;33575;52.600;7.318;2023-12-20T08:22:47;100863.81;;;5.68;100.00
47811;BME280;33575;52.600;7.318;2023-12-20T08:25:18;100867.40;;;5.71;100.00
47811;BME280;33575;52.600;7.318;2023-12-20T08:27:49;100874.45;;;5.73;100.00
47811;BME280;33575;52.600;7.318;2023-12-20T08:30:19;100866.34;;;5.63;100.00
47811;BME280;33575;52.600;7.318;2023-12-20T08:32:49;100869.14;;;5.70;100.00
47811;BME280;33575;52.600;7.318;2023-12-20T08:35:20;100862.66;;;5.67;100.00
47811;BME280;33575;52.600;7.318;2023-12-20T08:37:50;100864.69;;;5.61;100.00
47811;BME280;33575;52.600;7.318;2023-12-20T08:40:21;100870.03;;;5.60;100.00
47811;BME280;33575;52.600;7.318;2023-12-20T08:42:52;100869.69;;;5.67;100.00
47811;BME280;33575;52.600;7.318;2023-12-20T08:45:22;100870.30;;;5.65;100.00
47811;BME280;33575;52.600;7.318;2023-12-20T08:47:54;100879.14;;;5.40;100.00
47811;BME280;33575;52.600;7.318;2023-12-20T08:50:24;100873.12;;;5.48;100.00
47811;BME280;33575;52.600;7.318;2023-12-20T08:52:54;100863.18;;;5.34;100.00
47811;BME280;33575;52.600;7.318;2023-12-20T08:55:25;100864.96;;;5.64;100.00
47811;BME280;33575;52.600;7.318;2023-12-20T08:57:56;100851.44;;;5.65;100.00
47811;BME280;33575;52.600;7.318;2023-12-20T09:00:26;100852.72;;;5.64;100.00
47811;BME280;33575;52.600;7.318;2023-12-20T09:02:57;100842.98;;;5.67;100.00
47811;BME280;33575;52.600;7.318;2023-12-20T09:05:27;100840.98;;;5.72;100.00
47811;BME280;33575;52.600;7.318;2023-12-20T09:07:58;100845.12;;;5.60;100.00
47811;BME280;33575;52.600;7.318;2023-12-20T09:10:29;100845.33;;;5.59;100.00
47811;BME280;33575;52.600;7.318;2023-12-20T09:12:59;100847.19;;;5.74;100.00
47811;BME280;33575;52.600;7.318;2023-12-20T09:15:32;100847.50;;;5.73;100.00
47811;BME280;33575;52.600;7.318;2023-12-20T09:18:02;100842.44;;;5.79;100.00
47811;BME280;33575;52.600;7.318;2023-12-20T09:20:32;100838.68;;;5.80;100.00
47811;BME280;33575;52.600;7.318;2023-12-20T09:23:02;100841.31;;;5.86;100.00
47811;BME280;33575;52.600;7.318;2023-12-20T09:25:33;100851.58;;;5.95;100.00
47811;BME280;33575;52.600;7.318;2023-12-20T09:28:04;100852.67;;;5.92;100.00
47811;BME280;33575;52.600;7.318;2023-12-20T09:30:34;100854.03;;;6.00;100.00
47811;BME280;33575;52.600;7.318;2023-12-20T09:33:05;100851.70;;;5.88;100.00
47811;BME280;33575;52.600;7.318;2023-12-20T09:35:36;100851.80;;;6.01;100.00
47811;BME280;33575;52.600;7.318;2023-12-20T09:38:06;100856.71;;;6.02;100.00
47811;BME280;33575;52.600;7.318;2023-12-20T09:40:39;100859.61;;;5.97;100.00
47811;BME280;33575;52.600;7.318;2023-12-20T09:43:11;100854.14;;;6.10;100.00
47811;BME280;33575;52.600;7.318;2023-12-20T09:45:39;100857.51;;;6.07;100.00
47811;BME280;33575;52.600;7.318;2023-12-20T09:48:11;100850.05;;;6.16;100.00
47811;BME280;33575;52.600;7.318;2023-12-20T09:50:39;100855.03;;;6.08;100.00
47811;BME280;33575;52.600;7.318;2023-12-20T09:53:10;100849.64;;;6.14;100.00
47811;BME280;33575;52.600;7.318;2023-12-20T09:55:41;100847.35;;;6.17;100.00
47811;BME280;33575;52.600;7.318;2023-12-20T09:58:11;100848.77;;;6.14;100.00
47811;BME280;33575;52.600;7.318;2023-12-20T10:00:42;100850.65;;;6.18;100.00
47811;BME280;33575;52.600;7.318;2023-12-20T10:03:14;100848.99;;;6.24;100.00
47811;BME280;33575;52.600;7.318;2023-12-20T10:05:44;100847.30;;;6.17;100.00
47811;BME280;33575;52.600;7.318;2023-12-20T10:08:14;100850.13;;;6.23;100.00
47811;BME280;33575;52.600;7.318;2023-12-20T10:10:49;100852.00;;;6.31;100.00
47811;BME280;33575;52.600;7.318;2023-12-20T10:13:16;100848.02;;;6.36;100.00
47811;BME280;33575;52.600;7.318;2023-12-20T10:15:46;100853.21;;;6.24;100.00
47811;BME280;33575;52.600;7.318;2023-12-20T10:18:16;100847.58;;;6.40;100.00
47811;BME280;33575;52.600;7.318;2023-12-20T10:20:47;100842.62;;;6.48;100.00
47811;BME280;33575;52.600;7.318;2023-12-20T10:23:18;100844.95;;;6.47;100.00
47811;BME280;33575;52.600;7.318;2023-12-20T10:25:56;100848.99;;;6.45;100.00
47811;BME280;33575;52.600;7.318;2023-12-20T10:28:19;100843.04;;;6.46;100.00
47811;BME280;33575;52.600;7.318;2023-12-20T10:30:50;100844.16;;;6.46;100.00
47811;BME280;33575;52.600;7.318;2023-12-20T10:33:24;100841.48;;;6.46;100.00
47811;BME280;33575;52.600;7.318;2023-12-20T10:35:52;100843.59;;;6.52;100.00
47811;BME280;33575;52.600;7.318;2023-12-20T10:38:22;100868.30;;;6.57;100.00
47811;BME280;33575;52.600;7.318;2023-12-20T10:40:56;100919.59;;;5.86;100.00
47811;BME280;33575;52.600;7.318;2023-12-20T10:43:24;100918.21;;;5.43;100.00
47811;BME280;33575;52.600;7.318;2023-12-20T10:45:53;100918.28;;;5.25;100.00
47811;BME280;33575;52.600;7.318;2023-12-20T10:48:25;100916.96;;;5.09;100.00
47811;BME280;33575;52.600;7.318;2023-12-20T10:50:56;100911.11;;;4.94;100.00
47811;BME280;33575;52.600;7.318;2023-12-20T10:53:25;100899.03;;;4.87;100.00
47811;BME280;33575;52.600;7.318;2023-12-20T10:56:00;100895.92;;;4.65;100.00
47811;BME280;33575;52.600;7.318;2023-12-20T10:58:28;100897.56;;;4.88;100.00
47811;BME280;33575;52.600;7.318;2023-12-20T11:01:00;100893.18;;;5.12;100.00
47811;BME280;33575;52.600;7.318;2023-12-20T11:03:34;100892.63;;;5.21;100.00
47811;BME280;33575;52.600;7.318;2023-12-20T11:06:03;100883.22;;;5.25;100.00
47811;BME280;33575;52.600;7.318;2023-12-20T11:08:35;100877.87;;;4.98;100.00
47811;BME280;33575;52.600;7.318;2023-12-20T11:11:05;100884.82;;;5.14;100.00
47811;BME280;33575;52.600;7.318;2023-12-20T11:13:36;100872.52;;;5.12;100.00
47811;BME280;33575;52.600;7.318;2023-12-20T11:16:02;100867.88;;;5.20;100.00
47811;BME280;33575;52.600;7.318;2023-12-20T11:18:33;100874.29;;;5.24;100.00
47811;BME280;33575;52.600;7.318;2023-12-20T11:21:05;100873.34;;;5.23;100.00
47811;BME280;33575;52.600;7.318;2023-12-20T11:23:34;100865.04;;;5.42;100.00
47811;BME280;33575;52.600;7.318;2023-12-20T11:26:05;100861.59;;;5.51;100.00
47811;BME280;33575;52.600;7.318;2023-12-20T11:28:36;100863.52;;;5.59;100.00
47811;BME280;33575;52.600;7.318;2023-12-20T11:31:07;100862.65;;;5.42;100.00
47811;BME280;33575;52.600;7.318;2023-12-20T11:33:37;100858.37;;;5.53;100.00
47811;BME280;33575;52.600;7.318;2023-12-20T11:36:13;100853.47;;;5.41;100.00
47811;BME280;33575;52.600;7.318;2023-12-20T11:38:39;100854.72;;;5.44;100.00
47811;BME280;33575;52.600;7.318;2023-12-20T11:41:11;100853.13;;;5.46;100.00
47811;BME280;33575;52.600;7.318;2023-12-20T11:43:40;100851.30;;;5.52;100.00
47811;BME280;33575;52.600;7.318;2023-12-20T11:46:11;100846.90;;;5.50;100.00
47811;BME280;33575;52.600;7.318;2023-12-20T11:48:41;100846.59;;;5.75;100.00
47811;BME280;33575;52.600;7.318;2023-12-20T11:51:13;100837.41;;;5.88;100.00
47811;BME280;33575;52.600;7.318;2023-12-20T11:53:43;100843.33;;;5.85;100.00
47811;BME280;33575;52.600;7.318;2023-12-20T11:56:13;100838.55;;;5.82;99.14
47811;BME280;33575;52.600;7.318;2023-12-20T11:58:44;100841.45;;;5.72;98.82
47811;BME280;33575;52.600;7.318;2023-12-20T12:01:15;100841.64;;;5.72;97.80
47811;BME280;33575;52.600;7.318;2023-12-20T12:03:46;100843.15;;;5.58;98.06
47811;BME280;33575;52.600;7.318;2023-12-20T12:06:16;100842.98;;;5.55;96.99
47811;BME280;33575;52.600;7.318;2023-12-20T12:08:47;100841.47;;;5.60;97.92
47811;BME280;33575;52.600;7.318;2023-12-20T12:11:17;100837.74;;;5.57;98.13
47811;BME280;33575;52.600;7.318;2023-12-20T12:13:48;100837.68;;;5.51;98.59
47811;BME280;33575;52.600;7.318;2023-12-20T12:16:20;100842.38;;;5.63;98.14
47811;BME280;33575;52.600;7.318;2023-12-20T12:18:55;100832.30;;;5.61;98.87
47811;BME280;33575;52.600;7.318;2023-12-20T12:21:24;100829.08;;;5.75;98.66
47811;BME280;33575;52.600;7.318;2023-12-20T12:23:51;100828.34;;;5.76;99.18
47811;BME280;33575;52.600;7.318;2023-12-20T12:26:25;100825.11;;;5.80;99.00
47811;BME280;33575;52.600;7.318;2023-12-20T12:28:52;100832.40;;;5.68;99.53
47811;BME280;33575;52.600;7.318;2023-12-20T12:31:24;100830.67;;;5.56;99.58
47811;BME280;33575;52.600;7.318;2023-12-20T12:33:54;100827.10;;;5.72;100.00
47811;BME280;33575;52.600;7.318;2023-12-20T12:36:24;100816.55;;;5.77;99.72
47811;BME280;33575;52.600;7.318;2023-12-20T12:38:56;100809.21;;;5.88;99.55
47811;BME280;33575;52.600;7.318;2023-12-20T12:41:26;100803.74;;;5.90;99.71
47811;BME280;33575;52.600;7.318;2023-12-20T12:44:02;100795.46;;;5.99;98.82
47811;BME280;33575;52.600;7.318;2023-12-20T12:46:27;100786.21;;;5.88;99.36
47811;BME280;33575;52.600;7.318;2023-12-20T12:48:58;100795.43;;;5.90;98.76
47811;BME280;33575;52.600;7.318;2023-12-20T12:51:29;100800.79;;;5.84;99.72
47811;BME280;33575;52.600;7.318;2023-12-20T12:53:59;100799.78;;;5.89;98.94
47811;BME280;33575;52.600;7.318;2023-12-20T12:56:30;100796.09;;;5.90;99.00
47811;BME280;33575;52.600;7.318;2023-12-20T12:59:01;100800.74;;;5.89;99.26
47811;BME280;33575;52.600;7.318;2023-12-20T13:01:31;100799.83;;;6.00;98.64
47811;BME280;33575;52.600;7.318;2023-12-20T13:04:02;100807.46;;;6.07;98.26
47811;BME280;33575;52.600;7.318;2023-12-20T13:06:33;100817.18;;;6.04;98.11
47811;BME280;33575;52.600;7.318;2023-12-20T13:09:04;100812.58;;;5.93;99.00